Time;durP1;ratioP1;P1;durP2;ratioP2;P2;SDS_P1;SDS_P2;PMS_P1;PMS_P2;Temp;Humidity;BMP_temperature;BMP_pressure;BME280_temperature;BME280_humidity;BME280_pressure;Samples;Min_cycle;Max_cycle;Signal;HPM_P1;HPM_P2
2021/11/07 00:07:40;;;;;;;10.20;9.20;;;;;;;8.42;100.00;101560.38;10556278;28;20090;-78
2021/11/07 00:12:44;;;;;;;8.45;7.50;;;;;;;8.41;100.00;101558.63;10550241;28;20522;-80
2021/11/07 00:17:50;;;;;;;9.77;8.90;;;;;;;8.42;100.00;101560.38;10557203;28;20399;-77
2021/11/07 00:23:21;;;;;;;6.70;6.13;;;;;;;8.41;100.00;101540.59;10557697;28;20060;-78
2021/11/07 00:28:36;;;;;;;11.25;8.85;;;;;;;8.42;100.00;101532.91;10541667;28;20137;-77
2021/11/07 00:44:36;;;;;;;9.43;8.45;;;;;;;8.48;100.00;101524.50;10570719;28;20505;-76
2021/11/07 00:49:49;;;;;;;10.27;9.25;;;;;;;8.53;100.00;101517.81;10565469;28;20424;-78
2021/11/07 01:00:01;;;;;;;7.85;7.05;;;;;;;8.60;100.00;101514.59;10580926;28;20055;-77
2021/11/07 01:05:26;;;;;;;10.73;9.63;;;;;;;8.62;100.00;101512.06;10566362;28;20050;-77
2021/11/07 01:10:28;;;;;;;12.63;9.63;;;;;;;8.61;100.00;101506.03;10572548;28;20052;-76
2021/11/07 01:15:32;;;;;;;10.75;8.77;;;;;;;8.67;100.00;101482.16;10539381;28;20499;-76
2021/11/07 01:20:34;;;;;;;11.57;10.40;;;;;;;8.69;100.00;101483.97;10539877;28;20047;-76
2021/11/07 01:25:43;;;;;;;12.55;11.10;;;;;;;8.72;100.00;101478.00;10537451;28;20059;-77
2021/11/07 01:30:51;;;;;;;12.40;11.20;;;;;;;8.74;100.00;101477.25;10536696;28;20044;-77
2021/11/07 01:51:13;;;;;;;18.08;13.80;;;;;;;8.85;100.00;101441.47;10540573;28;20100;-78
2021/11/07 01:56:15;;;;;;;14.40;12.75;;;;;;;8.90;100.00;101441.59;10578489;28;20088;-79
2021/11/07 02:01:22;;;;;;;15.77;12.75;;;;;;;8.93;100.00;101427.09;10578107;28;20051;-78
2021/11/07 02:06:24;;;;;;;18.38;14.75;;;;;;;9.00;100.00;101430.75;10569198;28;20047;-78
2021/11/07 02:11:26;;;;;;;17.33;14.30;;;;;;;9.05;100.00;101423.16;10539438;28;20056;-77
2021/11/07 02:16:27;;;;;;;12.80;10.13;;;;;;;9.10;100.00;101399.22;10536140;28;20495;-77
2021/11/07 02:21:29;;;;;;;16.23;13.63;;;;;;;9.14;100.00;101408.81;10548362;28;20116;-78
2021/11/07 02:26:31;;;;;;;18.15;11.98;;;;;;;9.22;100.00;101403.88;10568589;28;20415;-78
2021/11/07 02:31:33;;;;;;;19.45;15.23;;;;;;;9.28;100.00;101391.13;10577861;28;20412;-78
2021/11/07 02:36:34;;;;;;;18.83;13.18;;;;;;;9.37;100.00;101375.06;10559873;28;20052;-76
2021/11/07 02:41:36;;;;;;;16.23;11.15;;;;;;;9.41;100.00;101380.31;10535878;28;20490;-76
2021/11/07 02:46:37;;;;;;;21.17;15.63;;;;;;;9.38;100.00;101369.03;10535963;28;20067;-78
2021/11/07 02:51:39;;;;;;;18.50;15.70;;;;;;;9.38;100.00;101369.91;10534445;28;20081;-76
2021/11/07 02:56:41;;;;;;;22.35;15.35;;;;;;;9.37;100.00;101363.00;10548836;28;20051;-75
2021/11/07 03:01:42;;;;;;;25.20;17.67;;;;;;;9.44;100.00;101352.00;10576981;28;20507;-78
2021/11/07 03:06:44;;;;;;;23.15;15.65;;;;;;;9.50;100.00;101347.00;10559221;28;20483;-77
2021/11/07 03:11:46;;;;;;;24.80;15.52;;;;;;;9.52;100.00;101342.75;10547305;28;20498;-75
2021/11/07 03:16:47;;;;;;;21.50;13.98;;;;;;;9.54;100.00;101337.66;10543190;28;20052;-76
2021/11/07 03:21:55;;;;;;;20.95;13.82;;;;;;;9.60;100.00;101355.88;10543067;28;20048;-75
2021/11/07 03:26:58;;;;;;;19.02;13.45;;;;;;;9.63;100.00;101353.38;10542362;28;20055;-75
2021/11/07 03:32:15;;;;;;;29.70;15.77;;;;;;;9.59;100.00;101335.16;10542274;28;20052;-76
2021/11/07 03:37:22;;;;;;;16.05;12.85;;;;;;;9.66;100.00;101330.22;10577182;28;20051;-75
2021/11/07 03:42:25;;;;;;;20.98;14.18;;;;;;;9.66;100.00;101326.78;10583613;28;20047;-75
2021/11/07 03:47:26;;;;;;;23.23;16.20;;;;;;;9.65;100.00;101332.78;10583733;28;20556;-75
2021/11/07 03:52:28;;;;;;;16.15;9.98;;;;;;;9.72;100.00;101351.03;10584531;28;20055;-77
2021/11/07 03:57:29;;;;;;;12.20;3.88;;;;;;;9.55;100.00;101340.25;10569996;28;20047;-79
2021/11/07 04:02:32;;;;;;;14.05;5.10;;;;;;;9.51;100.00;101332.38;10583345;28;20148;-77
2021/11/07 04:07:34;;;;;;;13.90;6.03;;;;;;;9.42;100.00;101324.41;10571360;28;20544;-77
2021/11/07 04:12:35;;;;;;;12.80;5.13;;;;;;;9.29;100.00;101318.88;10558072;28;20048;-76
2021/11/07 04:17:37;;;;;;;7.88;3.25;;;;;;;9.32;100.00;101319.81;10539560;28;20495;-76
2021/11/07 04:22:39;;;;;;;14.82;4.63;;;;;;;9.24;100.00;101310.13;10538941;28;20503;-76
2021/11/07 04:27:40;;;;;;;19.00;4.65;;;;;;;9.15;100.00;101312.47;10575021;28;20096;-76
2021/11/07 04:32:42;;;;;;;16.77;5.35;;;;;;;9.14;100.00;101307.28;10582947;28;20062;-75
2021/11/07 04:37:44;;;;;;;14.05;5.32;;;;;;;9.14;100.00;101317.59;10555913;28;20499;-75
2021/11/07 04:42:46;;;;;;;16.75;4.80;;;;;;;9.13;100.00;101314.16;10540093;28;20047;-75
2021/11/07 04:47:48;;;;;;;15.02;4.40;;;;;;;9.10;100.00;101323.50;10580150;28;20044;-74
2021/11/07 04:52:50;;;;;;;12.98;5.20;;;;;;;9.10;100.00;101314.06;10581817;28;20051;-75
2021/11/07 04:57:52;;;;;;;18.77;4.40;;;;;;;9.10;100.00;101316.63;10581071;28;20101;-74
2021/11/07 05:02:53;;;;;;;9.30;3.03;;;;;;;9.10;100.00;101300.28;10561142;28;20052;-75
2021/11/07 05:07:56;;;;;;;21.38;4.95;;;;;;;9.06;100.00;101313.91;10560446;28;20047;-74
2021/11/07 05:12:58;;;;;;;12.15;4.00;;;;;;;8.94;100.00;101310.16;10554190;28;20411;-75
2021/11/07 05:17:59;;;;;;;11.52;3.80;;;;;;;8.93;100.00;101318.72;10536221;28;20415;-74
2021/11/07 05:23:01;;;;;;;17.98;5.25;;;;;;;8.84;100.00;101304.69;10538040;28;20051;-74
2021/11/07 05:28:03;;;;;;;20.05;5.88;;;;;;;8.81;100.00;101295.16;10574539;28;20461;-74
2021/11/07 05:33:04;;;;;;;20.88;4.78;;;;;;;8.76;100.00;101314.78;10578926;28;20048;-75
2021/11/07 05:38:06;;;;;;;16.48;5.25;;;;;;;8.70;100.00;101310.31;10569363;28;20047;-75
2021/11/07 05:43:07;;;;;;;14.25;3.92;;;;;;;8.65;100.00;101313.59;10579570;28;20290;-74
2021/11/07 05:48:09;;;;;;;15.93;4.90;;;;;;;8.56;100.00;101313.28;10578425;28;20050;-74
2021/11/07 05:53:11;;;;;;;19.70;5.53;;;;;;;8.55;100.00;101320.16;10571628;28;20048;-74
2021/11/07 05:58:12;;;;;;;16.17;4.20;;;;;;;8.43;100.00;101325.81;10536654;28;20062;-74
2021/11/07 06:03:15;;;;;;;16.25;5.03;;;;;;;8.41;100.00;101319.75;10560616;28;20059;-74
2021/11/07 06:08:16;;;;;;;11.55;3.50;;;;;;;8.43;100.00;101318.09;10563835;28;20043;-74
2021/11/07 06:13:18;;;;;;;12.63;4.63;;;;;;;8.26;100.00;101334.69;10559170;28;20101;-74
2021/11/07 06:18:20;;;;;;;11.32;3.78;;;;;;;8.08;100.00;101332.41;10542942;28;20040;-74
2021/11/07 06:23:21;;;;;;;14.07;3.70;;;;;;;8.08;100.00;101339.25;10535626;28;20430;-74
2021/11/07 06:28:23;;;;;;;12.23;3.60;;;;;;;7.94;100.00;101349.06;10535248;28;20461;-74
2021/11/07 06:33:24;;;;;;;13.13;3.40;;;;;;;7.88;100.00;101331.72;10547261;28;20055;-74
2021/11/07 06:38:26;;;;;;;21.30;5.22;;;;;;;7.84;100.00;101347.03;10531732;28;20511;-74
2021/11/07 06:43:27;;;;;;;14.65;4.38;;;;;;;7.68;100.00;101346.50;10545637;28;20484;-74
2021/11/07 06:48:30;;;;;;;22.13;4.85;;;;;;;7.71;100.00;101345.72;10556112;28;20047;-74
2021/11/07 06:53:31;;;;;;;17.67;4.38;;;;;;;7.61;100.00;101359.13;10545427;28;20051;-74
2021/11/07 06:58:33;;;;;;;10.32;3.95;;;;;;;7.63;100.00;101349.75;10541441;28;20051;-73
2021/11/07 07:03:34;;;;;;;11.55;2.92;;;;;;;7.73;100.00;101356.09;10534388;28;20040;-74
2021/11/07 07:08:45;;;;;;;14.90;3.50;;;;;;;7.57;100.00;101365.84;10560698;28;20470;-74
2021/11/07 07:14:01;;;;;;;14.05;4.70;;;;;;;7.67;100.00;101357.63;10555096;28;20051;-74
2021/11/07 07:29:51;;;;;;;22.55;5.28;;;;;;;7.56;100.00;101374.41;10545833;28;20393;-74
2021/11/07 07:34:55;;;;;;;13.15;3.85;;;;;;;7.68;100.00;101371.38;10563663;28;20059;-74
2021/11/07 07:39:57;;;;;;;15.80;5.35;;;;;;;7.72;100.00;101365.53;10572997;28;20161;-74
2021/11/07 07:45:02;;;;;;;18.15;4.57;;;;;;;7.66;100.00;101371.34;10535329;28;20055;-74
2021/11/07 07:50:04;;;;;;;18.08;4.70;;;;;;;7.71;100.00;101371.47;10535187;28;20063;-74
2021/11/07 07:55:08;;;;;;;15.48;4.03;;;;;;;7.72;100.00;101378.41;10538263;28;20056;-74
2021/11/07 08:00:11;;;;;;;11.73;3.88;;;;;;;7.78;100.00;101378.63;10567751;28;20050;-74
2021/11/07 08:05:14;;;;;;;17.58;4.88;;;;;;;7.97;100.00;101390.41;10564427;28;20067;-74
2021/11/07 08:10:16;;;;;;;16.63;4.60;;;;;;;8.14;100.00;101393.56;10576925;28;20044;-75
2021/11/07 08:15:17;;;;;;;25.33;6.10;;;;;;;8.38;100.00;101399.56;10540626;28;20051;-74
2021/11/07 08:20:19;;;;;;;39.72;4.97;;;;;;;8.48;100.00;101411.91;10537585;28;20500;-74
2021/11/07 08:25:22;;;;;;;19.70;4.53;;;;;;;8.51;100.00;101411.16;10536460;28;20048;-74
2021/11/07 08:30:25;;;;;;;18.67;4.13;;;;;;;8.31;100.00;101409.59;10533654;28;20052;-75
2021/11/07 08:35:27;;;;;;;14.52;3.42;;;;;;;8.41;100.00;101396.22;10537322;28;20105;-74
2021/11/07 08:40:53;;;;;;;22.05;4.68;;;;;;;8.42;100.00;101393.69;10536698;28;20419;-75
2021/11/07 09:11:59;;;;;;;14.52;4.57;;;;;;;9.05;100.00;101394.75;10562551;28;20047;-74
2021/11/07 09:17:02;;;;;;;12.27;4.13;;;;;;;9.32;100.00;101392.13;10539075;28;20050;-76
2021/11/07 09:22:32;;;;;;;14.93;3.67;;;;;;;9.27;99.99;101400.59;10538915;28;20052;-73
2021/11/07 09:27:47;;;;;;;16.98;4.57;;;;;;;9.11;100.00;101395.81;10559754;28;20048;-73
2021/11/07 09:38:01;;;;;;;23.75;4.93;;;;;;;9.34;100.00;101391.31;10573791;28;20100;-73
2021/11/07 09:43:35;;;;;;;18.00;4.45;;;;;;;9.66;98.07;101404.25;10558842;28;20059;-73
2021/11/07 09:48:41;;;;;;;8.63;2.75;;;;;;;10.03;96.15;101398.34;10562007;28;20060;-73
2021/11/07 09:53:55;;;;;;;12.82;5.05;;;;;;;10.01;94.13;101387.97;10555170;28;20059;-73
2021/11/07 09:58:59;;;;;;;15.23;4.47;;;;;;;9.92;95.20;101384.28;10567891;28;20039;-75
2021/11/07 10:04:03;;;;;;;10.82;2.58;;;;;;;9.94;95.07;101387.78;10562559;28;20204;-77
2021/11/07 10:09:06;;;;;;;3.13;1.45;;;;;;;10.28;90.33;101389.56;10537228;28;20043;-76
2021/11/07 10:14:16;;;;;;;18.38;3.45;;;;;;;10.19;89.43;101397.91;10539984;28;20056;-77
2021/11/07 10:24:36;;;;;;;6.72;2.33;;;;;;;10.24;88.62;101386.00;10543044;28;20139;-76
2021/11/07 10:29:47;;;;;;;6.57;1.83;;;;;;;10.33;89.28;101383.66;10573678;28;20117;-75
2021/11/07 10:35:26;;;;;;;14.90;3.55;;;;;;;10.67;86.88;101381.88;10535729;28;20055;-74
2021/11/07 10:46:15;;;;;;;18.08;3.40;;;;;;;11.02;84.48;101374.03;10536284;28;20059;-76
2021/11/07 10:56:03;;;;;;;6.95;2.28;;;;;;;10.66;77.53;101372.34;10577575;28;20047;-76
2021/11/07 11:01:08;;;;;;;14.98;3.95;;;;;;;10.63;78.21;101374.00;10578010;28;20063;-76
2021/11/07 11:06:13;;;;;;;10.32;3.55;;;;;;;10.71;79.96;101352.63;10577174;28;20130;-75
2021/11/07 11:11:25;;;;;;;17.15;4.05;;;;;;;10.73;79.80;101353.56;10559581;28;20047;-77
2021/11/07 11:27:34;;;;;;;6.93;2.35;;;;;;;11.50;76.54;101337.00;10563980;28;20096;-76
2021/11/07 11:43:11;;;;;;;13.10;4.38;;;;;;;10.76;80.49;101355.31;10557889;28;20352;-78
2021/11/07 11:58:53;;;;;;;8.75;2.55;;;;;;;8.67;96.28;101408.22;10584685;28;20055;-77
2021/11/07 12:04:15;;;;;;;11.13;3.00;;;;;;;8.42;100.00;101396.25;10570669;28;20512;-77
2021/11/07 12:14:54;;;;;;;11.57;3.08;;;;;;;8.41;100.00;101401.38;10548609;28;20052;-78
2021/11/07 12:19:56;;;;;;;12.55;3.05;;;;;;;8.47;100.00;101397.28;10540379;28;20052;-77
2021/11/07 12:25:03;;;;;;;12.52;2.83;;;;;;;8.50;100.00;101394.78;10552836;28;20134;-76
2021/11/07 12:30:11;;;;;;;19.83;5.30;;;;;;;8.42;100.00;101390.22;10554150;28;20505;-77
2021/11/07 12:35:39;;;;;;;15.27;4.88;;;;;;;8.41;100.00;101391.94;10582661;28;20453;-76
2021/11/07 12:40:40;;;;;;;12.55;3.65;;;;;;;8.47;100.00;101370.63;10582984;28;20047;-77
2021/11/07 12:45:47;;;;;;;17.42;3.75;;;;;;;8.49;100.00;101376.69;10574706;28;20052;-75
2021/11/07 12:50:57;;;;;;;;;;;;;;;8.56;100.00;101380.34;10567354;28;20040;-76
2021/11/07 12:56:07;;;;;;;8.65;3.40;;;;;;;8.63;100.00;101387.47;10548711;28;20287;-75
2021/11/07 13:01:09;;;;;;;16.98;5.40;;;;;;;8.74;100.00;101384.38;10545494;28;20459;-76
2021/11/07 13:06:11;;;;;;;2.95;1.65;;;;;;;8.71;100.00;101373.97;10565270;28;20441;-76
2021/11/07 13:11:21;;;;;;;11.88;3.53;;;;;;;9.00;100.00;101392.91;10560062;28;20132;-77
2021/11/07 13:22:02;;;;;;;13.40;3.75;;;;;;;8.88;100.00;101381.34;10561466;28;20048;-76
2021/11/07 13:27:10;;;;;;;20.50;4.65;;;;;;;9.30;100.00;101376.56;10566100;28;20562;-77
2021/11/07 13:37:44;;;;;;;16.23;4.78;;;;;;;9.58;100.00;101378.19;10546409;28;20496;-76
2021/11/07 13:42:46;;;;;;;17.03;4.43;;;;;;;9.71;100.00;101375.13;10570792;28;20043;-76
2021/11/07 13:47:50;;;;;;;13.65;4.47;;;;;;;9.78;100.00;101377.03;10541841;28;20055;-76
2021/11/07 13:52:53;;;;;;;19.17;5.50;;;;;;;9.89;100.00;101376.47;10567652;28;20040;-76
2021/11/07 13:57:55;;;;;;;18.83;5.53;;;;;;;10.00;97.44;101372.44;10558720;28;20067;-76
2021/11/07 14:02:57;;;;;;;10.75;3.70;;;;;;;10.13;95.95;101353.81;10569876;28;20051;-77
2021/11/07 14:08:03;;;;;;;10.52;4.30;;;;;;;10.42;94.27;101376.94;10560717;28;20059;-76
2021/11/07 14:13:14;;;;;;;10.83;3.80;;;;;;;10.26;95.17;101367.94;10572709;28;20039;-77
2021/11/07 14:18:38;;;;;;;24.20;4.65;;;;;;;9.77;99.94;101395.97;10570147;28;20364;-76
2021/11/07 14:23:52;;;;;;;3.58;0.82;;;;;;;8.83;100.00;101424.19;10569291;28;20445;-81
2021/11/07 14:29:22;;;;;;;16.42;4.13;;;;;;;8.70;100.00;101410.03;10568274;28;20473;-80
2021/11/07 14:34:37;;;;;;;17.15;4.07;;;;;;;8.52;100.00;101418.06;10560286;28;20079;-78
2021/11/07 14:39:43;;;;;;;12.90;4.32;;;;;;;8.36;100.00;101423.53;10561090;28;20071;-80
2021/11/07 14:44:51;;;;;;;21.23;3.90;;;;;;;8.07;100.00;101425.13;10544825;28;20044;-80
2021/11/07 14:55:34;;;;;;;16.02;3.55;;;;;;;7.94;100.00;101434.09;10568678;28;20059;-77
2021/11/07 15:00:41;;;;;;;15.65;4.03;;;;;;;7.82;100.00;101431.09;10570026;28;20043;-78
2021/11/07 15:05:58;;;;;;;16.10;3.65;;;;;;;7.85;100.00;101439.81;10563733;28;20561;-77
2021/11/07 15:11:11;;;;;;;12.65;3.78;;;;;;;7.84;100.00;101440.66;10578840;28;20052;-76
2021/11/07 15:16:32;;;;;;;6.97;3.05;;;;;;;7.82;100.00;101442.25;10549888;28;20048;-78
2021/11/07 15:22:06;;;;;;;13.73;4.70;;;;;;;7.82;100.00;101441.38;10564436;28;20055;-77
2021/11/07 15:27:23;;;;;;;11.38;2.53;;;;;;;7.75;100.00;101436.84;10560551;28;20036;-76
2021/11/07 15:32:28;;;;;;;15.68;3.92;;;;;;;7.72;100.00;101450.50;10555590;28;20058;-77
2021/11/07 15:37:34;;;;;;;23.83;5.60;;;;;;;7.70;100.00;101447.84;10559722;28;20044;-76
2021/11/07 15:42:40;;;;;;;16.93;4.63;;;;;;;7.58;100.00;101446.53;10562493;28;20069;-76
2021/11/07 15:47:45;;;;;;;18.05;5.07;;;;;;;7.47;100.00;101446.16;10562247;28;20062;-76
2021/11/07 15:52:54;;;;;;;19.63;5.85;;;;;;;7.37;100.00;101459.47;10580750;28;20499;-77
2021/11/07 15:58:22;;;;;;;12.50;5.72;;;;;;;7.21;100.00;101454.59;10568220;28;20403;-76
2021/11/07 16:03:42;;;;;;;14.20;4.43;;;;;;;7.17;100.00;101469.03;10542477;28;20059;-77
2021/11/07 16:19:11;;;;;;;15.38;4.85;;;;;;;6.83;100.00;101493.44;10562715;28;20048;-76
2021/11/07 16:24:13;;;;;;;13.15;5.22;;;;;;;6.76;100.00;101487.97;10583159;28;20055;-76
2021/11/07 16:29:22;;;;;;;14.27;5.03;;;;;;;6.83;100.00;101502.84;10582105;28;20054;-76
2021/11/07 16:34:25;;;;;;;22.35;10.45;;;;;;;6.82;100.00;101504.53;10566280;28;20052;-75
2021/11/07 16:39:33;;;;;;;19.05;5.55;;;;;;;6.82;100.00;101507.09;10542698;28;20048;-77
2021/11/07 16:44:38;;;;;;;19.23;4.70;;;;;;;6.83;100.00;101502.84;10555323;28;20063;-78
2021/11/07 16:49:41;;;;;;;26.65;5.43;;;;;;;6.80;100.00;101506.16;10540194;28;20052;-76
2021/11/07 16:54:56;;;;;;;22.50;6.45;;;;;;;6.87;100.00;101504.72;10543287;28;20058;-75
2021/11/07 17:10:11;;;;;;;24.17;4.95;;;;;;;6.85;100.00;101532.94;10542314;28;20502;-75
2021/11/07 17:15:22;;;;;;;12.98;3.78;;;;;;;7.10;100.00;101534.81;10538966;28;20055;-76
2021/11/07 17:30:37;;;;;;;34.70;14.65;;;;;;;7.04;100.00;101538.84;10537296;28;20044;-76
2021/11/07 17:35:48;;;;;;;16.63;4.65;;;;;;;6.86;100.00;101534.72;10580378;28;20085;-76
2021/11/07 17:56:36;;;;;;;15.48;6.10;;;;;;;6.73;100.00;101558.13;10523023;28;20051;-75
2021/11/07 18:01:38;;;;;;;19.05;6.13;;;;;;;6.50;100.00;101562.31;10538337;28;20078;-75
2021/11/07 18:06:45;;;;;;;20.00;5.63;;;;;;;6.37;100.00;101575.47;10536019;28;20051;-75
2021/11/07 18:11:48;;;;;;;18.58;6.45;;;;;;;6.41;100.00;101584.16;10564886;28;20048;-75
2021/11/07 18:16:52;;;;;;;14.82;6.43;;;;;;;6.16;100.00;101582.22;10577654;28;20047;-75
2021/11/07 18:22:03;;;;;;;27.80;10.30;;;;;;;6.07;100.00;101586.16;10536848;28;20118;-75
2021/11/07 18:27:09;;;;;;;18.80;9.30;;;;;;;5.98;100.00;101593.41;10564517;28;20047;-75
2021/11/07 18:32:11;;;;;;;26.80;11.50;;;;;;;5.95;100.00;101587.25;10548788;28;20055;-75
2021/11/07 18:37:14;;;;;;;15.60;7.78;;;;;;;5.78;100.00;101591.59;10572228;28;20488;-75
2021/11/07 18:42:16;;;;;;;12.80;7.78;;;;;;;5.58;100.00;101599.25;10535967;28;20055;-75
2021/11/07 18:47:20;;;;;;;20.20;8.70;;;;;;;5.60;100.00;101604.44;10535542;28;20469;-75
2021/11/07 18:52:21;;;;;;;28.30;11.30;;;;;;;5.41;100.00;101595.00;10536131;28;20496;-75
2021/11/07 18:57:25;;;;;;;25.27;11.57;;;;;;;5.37;100.00;101592.22;10551776;28;20059;-75
2021/11/07 19:02:27;;;;;;;29.73;17.30;;;;;;;5.32;100.00;101597.13;10546768;28;20484;-75
2021/11/07 19:07:29;;;;;;;24.30;11.93;;;;;;;5.37;100.00;101607.59;10542333;28;20044;-75
2021/11/07 19:12:31;;;;;;;22.55;8.73;;;;;;;5.39;100.00;101616.25;10571495;28;20400;-75
2021/11/07 19:17:32;;;;;;;17.23;7.22;;;;;;;5.29;100.00;101615.81;10572705;28;20132;-75
2021/11/07 19:22:34;;;;;;;27.85;9.82;;;;;;;5.25;100.00;101616.47;10537718;28;20044;-75
2021/11/07 19:27:36;;;;;;;26.20;9.77;;;;;;;5.24;100.00;101624.09;10544546;28;20059;-75
2021/11/07 19:32:38;;;;;;;19.05;9.40;;;;;;;5.20;100.00;101622.19;10578768;28;20054;-75
2021/11/07 19:37:40;;;;;;;21.02;8.77;;;;;;;5.25;100.00;101633.53;10569918;28;20044;-75
2021/11/07 19:42:41;;;;;;;21.48;5.38;;;;;;;5.37;100.00;101636.69;10539077;28;20047;-75
2021/11/07 19:47:53;;;;;;;17.83;6.35;;;;;;;5.34;100.00;101645.97;10542293;28;20048;-75
2021/11/07 19:52:56;;;;;;;18.88;6.50;;;;;;;5.28;100.00;101642.28;10561345;28;20063;-75
2021/11/07 19:57:58;;;;;;;16.98;5.00;;;;;;;5.17;100.00;101650.25;10562811;28;20384;-75
2021/11/07 20:13:29;;;;;;;12.13;5.15;;;;;;;5.31;100.00;101665.50;10566365;28;20048;-75
2021/11/07 20:18:30;;;;;;;17.98;6.35;;;;;;;5.34;100.00;101677.63;10543459;28;20040;-75
2021/11/07 20:23:38;;;;;;;27.40;6.43;;;;;;;5.45;100.00;101680.72;10543778;28;20051;-75
2021/11/07 20:28:40;;;;;;;12.43;4.43;;;;;;;5.35;100.00;101687.06;10554768;28;20427;-75
2021/11/07 20:33:42;;;;;;;19.65;4.65;;;;;;;5.49;100.00;101695.44;10583712;28;20043;-76
2021/11/07 20:38:44;;;;;;;17.77;4.75;;;;;;;5.45;100.00;101699.56;10565370;28;20044;-76
2021/11/07 20:43:51;;;;;;;18.90;5.18;;;;;;;5.51;100.00;101707.56;10579462;27;20069;-76
2021/11/07 20:54:05;;;;;;;19.90;4.28;;;;;;;5.52;100.00;101711.88;10582129;28;20098;-76
2021/11/07 21:04:19;;;;;;;19.50;5.38;;;;;;;5.46;100.00;101736.34;10582216;28;20055;-76
2021/11/07 21:09:29;;;;;;;19.27;5.68;;;;;;;5.46;100.00;101734.66;10563446;28;20480;-76
2021/11/07 21:30:27;;;;;;;15.77;4.72;;;;;;;5.54;100.00;101735.91;10580819;28;20043;-75
2021/11/07 21:35:32;;;;;;;14.77;5.00;;;;;;;5.54;100.00;101753.88;10579901;28;20051;-75
2021/11/07 21:40:55;;;;;;;12.02;4.28;;;;;;;5.54;100.00;101755.56;10559667;28;20039;-75
2021/11/07 21:46:18;;;;;;;20.02;4.20;;;;;;;5.68;100.00;101756.28;10579179;28;20423;-75
2021/11/07 21:51:21;;;;;;;18.85;4.50;;;;;;;5.64;100.00;101759.47;10578113;28;20051;-75
2021/11/07 21:56:25;;;;;;;15.30;4.65;;;;;;;5.68;100.00;101766.53;10579728;28;20089;-75
2021/11/07 22:01:26;;;;;;;21.33;5.88;;;;;;;5.69;100.00;101765.72;10578920;28;20104;-75
2021/11/07 22:06:28;;;;;;;17.00;4.70;;;;;;;5.69;100.00;101768.28;10554990;28;20055;-75
2021/11/07 22:11:35;;;;;;;13.20;4.32;;;;;;;5.56;100.00;101770.25;10559969;28;20051;-75
2021/11/07 22:21:59;;;;;;;13.95;5.35;;;;;;;5.47;100.00;101774.91;10579024;28;20047;-75
2021/11/07 22:27:02;;;;;;;14.38;4.68;;;;;;;5.46;100.00;101779.97;10576207;28;20047;-75
2021/11/07 22:32:09;;;;;;;17.65;5.30;;;;;;;5.44;100.00;101787.56;10576991;28;20519;-75
2021/11/07 22:37:11;;;;;;;19.45;5.03;;;;;;;5.53;100.00;101780.34;10538599;28;20098;-75
2021/11/07 22:42:16;;;;;;;12.00;4.47;;;;;;;5.63;100.00;101788.53;10538165;28;20093;-75
2021/11/07 22:47:22;;;;;;;13.65;5.13;;;;;;;5.67;100.00;101777.56;10545435;28;20055;-76
2021/11/07 22:52:35;;;;;;;19.30;4.63;;;;;;;5.67;100.00;101786.16;10554624;28;20044;-75
2021/11/07 23:03:06;;;;;;;19.38;5.28;;;;;;;5.76;100.00;101789.19;10567104;28;20048;-74
2021/11/07 23:08:29;;;;;;;15.35;4.70;;;;;;;5.83;100.00;101800.66;10547984;28;20051;-75
2021/11/07 23:13:31;;;;;;;15.40;4.70;;;;;;;5.85;100.00;101797.38;10547292;28;20044;-75
2021/11/07 23:18:32;;;;;;;14.60;4.20;;;;;;;5.81;100.00;101815.09;10579685;28;20398;-75
2021/11/07 23:23:34;;;;;;;15.70;4.80;;;;;;;5.83;100.00;101823.75;10580689;28;20048;-75
2021/11/07 23:28:37;;;;;;;15.68;3.28;;;;;;;5.80;100.00;101827.06;10544705;28;20048;-75
2021/11/07 23:33:39;;;;;;;27.13;4.65;;;;;;;5.74;100.00;101826.75;10544818;28;20040;-75
2021/11/07 23:38:44;;;;;;;21.35;4.85;;;;;;;5.76;100.00;101827.69;10545048;28;20051;-75
2021/11/07 23:43:48;;;;;;;16.85;5.22;;;;;;;5.78;100.00;101833.78;10558643;28;20097;-75
2021/11/07 23:48:57;;;;;;;16.90;5.05;;;;;;;5.74;100.00;101834.47;10544924;28;20043;-75
2021/11/07 23:54:20;;;;;;;14.10;4.80;;;;;;;5.68;100.00;101838.41;10544794;28;20044;-75
2021/11/07 23:59:22;;;;;;;12.82;4.75;;;;;;;5.54;100.00;101827.44;10544271;28;20051;-75
